Forside
METAR-TAF:

METAR-TAF

Lufthavne :

Wittmund, Tyskland

Breddekreds: 53-33N, længdekreds: 007-40E, højde: 8 m

Aktuelle vejr

Denne rapport blev lavet for 32 minutter siden, kl. 08:20 UTC
Vind 11 kt fra vest
Temperatur 11°C
Fugtighed 66%
Tryk 1020 hPa

METAR: ETNT 140820Z AUTO 28011KT //// // ////// 11/05 Q1020 ///

Tid: 10:52 (08:52 UTC)


TAF: fraværende

Vejrobservationer og prognoser fra mere end 4000 lufthavne (METAR og TAF).

De gule og røde prikker repræsenterer de meteorologiske stationer.

Flyt musen over at se navnet på stationen.

Så klik over at se vejr observationer og prognoser.

At skifte det kort: Klik på de grønne knapper med et sort kors for at zoome ind; på den grønne knap med en bindestreg for at zoome ud; eller på de grønne pile for tilstødende kort.


METAR-TAF: